createdAt,value
2022-09-15T00:03:04.352Z,97491.50
2022-09-15T00:08:07.897Z,97499.19
2022-09-15T00:13:11.290Z,97500.50
2022-09-15T00:18:18.393Z,97504.84
2022-09-15T00:23:25.224Z,97505.47
2022-09-15T00:28:28.686Z,97501.13
2022-09-15T00:33:32.069Z,97497.06
2022-09-15T00:38:36.987Z,97499.59
2022-09-15T00:43:43.547Z,97504.34
2022-09-15T00:49:16.675Z,97501.00
2022-09-15T00:54:32.060Z,97502.25
2022-09-15T00:59:39.490Z,97500.00
2022-09-15T01:04:43.814Z,97493.63
2022-09-15T01:09:54.725Z,97495.06
2022-09-15T01:15:01.451Z,97498.28
2022-09-15T01:20:09.217Z,97491.94
2022-09-15T01:25:31.086Z,97490.44
2022-09-15T01:30:42.237Z,97497.09
2022-09-15T01:36:03.894Z,97499.16
2022-09-15T01:41:07.373Z,97504.06
2022-09-15T01:46:14.528Z,97504.97
2022-09-15T01:51:18.757Z,97504.06
2022-09-15T01:56:22.623Z,97506.94
2022-09-15T02:01:39.414Z,97512.88
2022-09-15T02:07:01.663Z,97512.44
2022-09-15T02:12:10.253Z,97515.53
2022-09-15T02:17:17.603Z,97513.44
2022-09-15T02:22:23.879Z,97515.13
2022-09-15T02:27:31.938Z,97516.22
2022-09-15T02:32:37.765Z,97515.94
2022-09-15T02:37:41.621Z,97527.63
2022-09-15T02:42:56.987Z,97521.38
2022-09-15T02:48:00.267Z,97516.16
2022-09-15T02:53:03.914Z,97519.69
2022-09-15T02:58:07.367Z,97523.13
2022-09-15T03:03:10.728Z,97527.47
2022-09-15T03:08:14.048Z,97520.03
2022-09-15T03:13:17.916Z,97523.75
2022-09-15T03:18:21.304Z,97530.25
2022-09-15T03:23:24.805Z,97531.53
2022-09-15T03:28:29.423Z,97533.19
2022-09-15T03:33:33.268Z,97540.53
2022-09-15T03:38:37.215Z,97544.66
2022-09-15T03:43:41.370Z,97543.34
2022-09-15T03:48:45.368Z,97555.06
2022-09-15T03:53:48.658Z,97569.63
2022-09-15T03:58:53.206Z,97562.97
2022-09-15T04:03:56.940Z,97572.38
2022-09-15T04:09:00.592Z,97572.84
2022-09-15T04:14:04.110Z,97575.75
2022-09-15T04:19:07.397Z,97580.03
2022-09-15T04:24:10.815Z,97583.19
2022-09-15T04:29:16.380Z,97578.78
2022-09-15T04:34:19.830Z,97587.50
2022-09-15T04:39:23.195Z,97583.44
2022-09-15T04:44:26.796Z,97588.25
2022-09-15T04:49:30.231Z,97591.22
2022-09-15T04:54:34.759Z,97587.94
2022-09-15T04:59:38.170Z,97584.56
2022-09-15T05:04:41.654Z,97588.97
2022-09-15T05:09:46.348Z,97586.50
2022-09-15T05:14:49.970Z,97603.50
2022-09-15T05:19:54.016Z,97604.00
2022-09-15T05:24:57.587Z,97610.41
2022-09-15T05:30:25.244Z,97613.56
2022-09-15T05:35:25.421Z,97623.13
2022-09-15T05:40:31.569Z,97620.28
2022-09-15T05:45:37.833Z,97623.19
2022-09-15T05:50:49.797Z,97625.50
2022-09-15T05:55:56.453Z,97630.34
2022-09-15T06:01:08.470Z,97643.94
2022-09-15T06:06:12.185Z,97642.75
2022-09-15T06:11:21.946Z,97639.00
2022-09-15T06:16:26.385Z,97641.44
2022-09-15T06:21:31.758Z,97650.66
2022-09-15T06:26:35.100Z,97661.59
2022-09-15T06:31:41.684Z,97661.78
2022-09-15T06:36:51.514Z,97657.66
2022-09-15T06:42:03.696Z,97668.53
2022-09-15T06:47:10.695Z,97672.84
2022-09-15T06:52:13.910Z,97659.72
2022-09-15T06:57:17.383Z,97673.41
2022-09-15T07:02:20.818Z,97671.47
2022-09-15T07:07:25.688Z,97664.03
2022-09-15T07:12:29.276Z,97662.59
2022-09-15T07:17:32.800Z,97665.19
2022-09-15T07:22:36.860Z,97655.22
2022-09-15T07:27:40.115Z,97667.63
2022-09-15T07:32:43.385Z,97659.31
2022-09-15T07:37:47.103Z,97658.69
2022-09-15T07:42:50.490Z,97666.28
2022-09-15T07:47:55.034Z,97663.06
2022-09-15T07:52:58.456Z,97655.88
2022-09-15T07:58:02.884Z,97657.59
2022-09-15T08:03:06.400Z,97658.13
2022-09-15T08:08:09.800Z,97648.53
2022-09-15T08:13:13.219Z,97652.94
2022-09-15T08:18:19.718Z,97666.53
2022-09-15T08:23:27.125Z,97656.00
2022-09-15T08:28:30.538Z,97661.22
2022-09-15T08:33:34.623Z,97653.84
2022-09-15T08:38:42.968Z,97647.31
2022-09-15T08:44:13.889Z,97645.22
2022-09-15T08:49:53.497Z,97641.97
2022-09-15T08:55:03.636Z,97643.38
2022-09-15T09:00:14.972Z,97638.34
2022-09-15T09:05:47.569Z,97638.88
2022-09-15T09:10:58.612Z,97628.28
2022-09-15T09:16:20.384Z,97620.34
2022-09-15T09:21:33.672Z,97623.94
2022-09-15T09:26:37.364Z,97621.72
2022-09-15T09:31:41.959Z,97626.59
2022-09-15T09:36:45.680Z,97609.47
2022-09-15T09:41:49.837Z,97616.00
2022-09-15T09:46:53.630Z,97610.81
2022-09-15T09:52:00.231Z,97613.84
2022-09-15T09:57:32.196Z,97604.69
2022-09-15T10:02:47.078Z,97600.34
2022-09-15T10:07:50.694Z,97593.84
2022-09-15T10:12:58.108Z,97590.94
2022-09-15T10:18:02.133Z,97587.41
2022-09-15T10:23:17.839Z,97586.94
2022-09-15T10:28:23.992Z,97578.88
2022-09-15T10:33:32.033Z,97573.72
2022-09-15T10:38:44.953Z,97576.06
2022-09-15T10:44:22.065Z,97581.47
2022-09-15T10:49:41.903Z,97577.59
2022-09-15T10:54:58.668Z,97562.28
2022-09-15T11:00:20.561Z,97577.13
2022-09-15T11:05:38.108Z,97567.94
2022-09-15T11:10:47.621Z,97568.59
2022-09-15T11:15:54.074Z,97563.94
2022-09-15T11:21:26.426Z,97560.38
2022-09-15T11:26:57.068Z,97560.50
2022-09-15T11:32:10.236Z,97563.59
2022-09-15T11:37:40.453Z,97546.03
2022-09-15T11:42:58.123Z,97547.81
2022-09-15T11:48:15.873Z,97546.19
2022-09-15T11:53:26.411Z,97544.59
2022-09-15T11:59:01.008Z,97542.19
2022-09-15T12:04:43.782Z,97538.34
2022-09-15T12:09:47.219Z,97521.72
2022-09-15T12:14:52.711Z,97531.84
2022-09-15T12:20:06.516Z,97526.69
2022-09-15T12:25:20.551Z,97520.88
2022-09-15T12:30:41.095Z,97520.41
2022-09-15T12:35:44.589Z,97521.06
2022-09-15T12:40:58.599Z,97526.88
2022-09-15T12:46:02.759Z,97525.56
2022-09-15T12:51:09.828Z,97522.69
2022-09-15T12:56:24.282Z,97509.78
2022-09-15T13:01:27.540Z,97519.94
2022-09-15T13:06:34.751Z,97506.69
2022-09-15T13:11:41.975Z,97504.44
2022-09-15T13:17:09.053Z,97503.31
2022-09-15T13:22:12.328Z,97499.28
2022-09-15T13:27:21.164Z,97495.44
2022-09-15T13:32:46.588Z,97498.50
2022-09-15T13:38:20.137Z,97500.75
2022-09-15T13:44:03.956Z,97493.53
2022-09-15T13:49:25.649Z,97493.22
2022-09-15T13:54:29.321Z,97485.50
2022-09-15T13:59:33.865Z,97485.34
2022-09-15T14:04:37.376Z,97484.03
2022-09-15T14:09:48.749Z,97487.44
2022-09-15T14:14:56.464Z,97487.59
2022-09-15T14:20:01.768Z,97488.22
2022-09-15T14:25:14.427Z,97486.94
2022-09-15T14:30:26.762Z,97483.56
2022-09-15T14:35:37.998Z,97487.25
2022-09-15T14:40:53.658Z,97483.25
2022-09-15T14:46:10.865Z,97485.00
2022-09-15T14:51:25.249Z,97477.09
2022-09-15T14:56:34.505Z,97483.69
2022-09-15T15:01:41.008Z,97476.91
2022-09-15T15:07:06.284Z,97475.25
2022-09-15T15:12:25.243Z,97468.16
2022-09-15T15:17:43.709Z,97461.03
2022-09-15T15:22:47.611Z,97458.75
2022-09-15T15:27:53.956Z,97466.16
2022-09-15T15:33:02.868Z,97471.69
2022-09-15T15:38:18.226Z,97465.97
2022-09-15T15:43:23.777Z,97466.59
2022-09-15T15:48:45.377Z,97457.03
2022-09-15T15:53:48.859Z,97461.16
2022-09-15T15:58:52.297Z,97466.06
2022-09-15T16:03:55.960Z,97464.41
2022-09-15T16:09:00.822Z,97460.16
2022-09-15T16:14:04.264Z,97457.06
2022-09-15T16:19:07.563Z,97469.22
2022-09-15T16:24:15.714Z,97464.69
2022-09-15T16:29:19.303Z,97471.38
2022-09-15T16:34:23.029Z,97471.50
2022-09-15T16:39:26.513Z,97463.13
2022-09-15T16:44:29.922Z,97480.13
2022-09-15T16:49:33.404Z,97488.41
2022-09-15T16:54:36.660Z,97488.53
2022-09-15T16:59:40.384Z,97485.31
2022-09-15T17:04:44.942Z,97494.13
2022-09-15T17:09:50.901Z,97494.41
2022-09-15T17:14:54.413Z,97498.56
2022-09-15T17:19:58.465Z,97505.75
2022-09-15T17:25:01.971Z,97509.91
2022-09-15T17:30:06.312Z,97508.59
2022-09-15T17:35:18.160Z,97508.09
2022-09-15T17:40:22.019Z,97517.16
2022-09-15T17:45:35.066Z,97516.97
2022-09-15T17:50:39.800Z,97527.66
2022-09-15T17:55:43.660Z,97528.78
2022-09-15T18:00:49.006Z,97533.44
2022-09-15T18:05:52.512Z,97535.66
2022-09-15T18:10:57.138Z,97541.94
2022-09-15T18:16:05.923Z,97542.25
2022-09-15T18:21:21.242Z,97543.63
2022-09-15T18:26:26.692Z,97548.59
2022-09-15T18:31:30.245Z,97556.28
2022-09-15T18:36:33.881Z,97555.75
2022-09-15T18:41:37.803Z,97557.69
2022-09-15T18:46:41.211Z,97552.53
2022-09-15T18:51:52.190Z,97555.25
2022-09-15T18:56:55.584Z,97554.47
2022-09-15T19:02:00.325Z,97545.47
2022-09-15T19:07:03.756Z,97545.75
2022-09-15T19:12:07.116Z,97540.91
2022-09-15T19:17:11.758Z,97541.22
2022-09-15T19:22:15.983Z,97543.72
2022-09-15T19:27:20.062Z,97542.94
2022-09-15T19:32:23.536Z,97536.16
2022-09-15T19:37:26.809Z,97539.78
2022-09-15T19:42:30.018Z,97539.88
2022-09-15T19:47:33.653Z,97529.28
2022-09-15T19:52:37.046Z,97537.78
2022-09-15T19:57:42.550Z,97535.31
2022-09-15T20:02:48.316Z,97526.16
2022-09-15T20:07:52.620Z,97533.31
2022-09-15T20:12:56.110Z,97530.38
2022-09-15T20:17:59.433Z,97531.78
2022-09-15T20:23:02.519Z,97525.81
2022-09-15T20:28:05.821Z,97525.81
2022-09-15T20:33:09.310Z,97522.06
2022-09-15T20:38:12.737Z,97530.53
2022-09-15T20:43:16.158Z,97521.03
2022-09-15T20:48:19.574Z,97533.34
2022-09-15T20:53:22.899Z,97513.22
2022-09-15T20:58:26.916Z,97517.88
2022-09-15T21:03:30.879Z,97519.59
2022-09-15T21:08:35.482Z,97510.91
2022-09-15T21:13:40.944Z,97519.06
2022-09-15T21:18:45.496Z,97519.06
2022-09-15T21:23:52.008Z,97513.44
2022-09-15T21:28:57.027Z,97518.97
2022-09-15T21:34:00.780Z,97511.09
2022-09-15T21:39:04.910Z,97514.94
2022-09-15T21:44:09.020Z,97515.72
2022-09-15T21:49:14.164Z,97508.66
2022-09-15T21:54:18.112Z,97511.16
2022-09-15T21:59:21.427Z,97505.59
2022-09-15T22:04:24.916Z,97498.81
2022-09-15T22:09:28.784Z,97502.16
2022-09-15T22:14:32.287Z,97502.22
2022-09-15T22:19:35.873Z,97503.03
2022-09-15T22:24:39.409Z,97494.38
2022-09-15T22:29:42.816Z,97496.88
2022-09-15T22:34:46.430Z,97498.78
2022-09-15T22:39:58.927Z,97496.34
2022-09-15T22:45:02.600Z,97483.31
2022-09-15T22:50:07.038Z,97480.91
2022-09-15T22:55:11.383Z,97490.69
2022-09-15T23:00:16.239Z,97485.53
2022-09-15T23:05:19.933Z,97477.16
2022-09-15T23:10:23.675Z,97483.50
2022-09-15T23:15:27.173Z,97482.16
2022-09-15T23:20:30.692Z,97485.97
2022-09-15T23:25:34.299Z,97483.31
2022-09-15T23:30:38.835Z,97487.44
2022-09-15T23:35:49.725Z,97488.81
2022-09-15T23:41:06.059Z,97492.97
2022-09-15T23:46:10.116Z,97486.47
2022-09-15T23:51:14.795Z,97475.69
2022-09-15T23:56:18.753Z,97482.22
